Time;durP1;ratioP1;P1;durP2;ratioP2;P2;SDS_P1;SDS_P2;PMS_P1;PMS_P2;Temp;Humidity;BMP_temperature;BMP_pressure;BME280_temperature;BME280_humidity;BME280_pressure;Samples;Min_cycle;Max_cycle;Signal;HPM_P1;HPM_P2
2024/01/22 00:01:23;;;;;;;;;;;9.20;99.90;;;;;;5069780;28;19908;-64
2024/01/22 00:03:49;;;;;;;;;;;9.20;99.90;;;;;;5069665;28;19908;-64
2024/01/22 00:06:15;;;;;;;;;;;9.20;99.90;;;;;;5069439;28;19999;-64
2024/01/22 00:08:41;;;;;;;;;;;9.20;99.90;;;;;;5069855;28;19915;-66
2024/01/22 00:11:07;;;;;;;;;;;9.20;99.90;;;;;;5069727;28;19913;-65
2024/01/22 00:13:33;;;;;;;;;;;9.20;99.90;;;;;;5071542;28;19936;-65
2024/01/22 00:15:59;;;;;;;;;;;9.20;99.90;;;;;;5073567;28;20272;-65
2024/01/22 00:18:25;;;;;;;;;;;9.20;99.90;;;;;;5073488;28;19915;-65
2024/01/22 00:20:50;;;;;;;;;;;9.20;99.90;;;;;;5073512;28;19916;-64
2024/01/22 00:23:16;;;;;;;;;;;9.20;99.90;;;;;;5073323;28;19923;-65
2024/01/22 00:25:42;;;;;;;;;;;9.20;99.90;;;;;;5073479;28;19909;-65
2024/01/22 00:28:08;;;;;;;;;;;9.20;99.90;;;;;;5055114;28;20020;-64
2024/01/22 00:30:34;;;;;;;;;;;9.20;99.90;;;;;;5073579;28;19962;-64
2024/01/22 00:33:00;;;;;;;;;;;9.20;99.90;;;;;;5073404;28;20324;-63
2024/01/22 00:35:27;;;;;;;;;;;9.10;99.90;;;;;;5073523;28;20229;-64
2024/01/22 00:37:53;;;;;;;;;;;9.10;99.90;;;;;;5054896;28;19967;-66
2024/01/22 00:40:19;;;;;;;;;;;9.10;99.90;;;;;;5072929;28;20451;-66
2024/01/22 00:42:44;;;;;;;;;;;9.10;99.90;;;;;;5054705;28;19909;-64
2024/01/22 00:45:10;;;;;;;;;;;9.10;99.90;;;;;;5072967;28;20050;-64
2024/01/22 00:47:37;;;;;;;;;;;9.10;99.90;;;;;;5072847;28;19919;-64
2024/01/22 00:50:03;;;;;;;;;;;9.10;99.90;;;;;;5072704;28;19998;-64
2024/01/22 00:52:29;;;;;;;;;;;9.10;99.90;;;;;;5072729;28;20097;-64
2024/01/22 00:54:55;;;;;;;;;;;9.00;99.90;;;;;;5073080;28;20355;-65
2024/01/22 00:57:21;;;;;;;;;;;9.10;99.90;;;;;;5072578;28;19908;-64
2024/01/22 00:59:47;;;;;;;;;;;9.10;99.90;;;;;;5072997;28;19947;-64
2024/01/22 01:02:12;;;;;;;;;;;9.10;99.90;;;;;;5073198;28;20007;-64
2024/01/22 01:04:38;;;;;;;;;;;9.10;99.90;;;;;;5072523;28;19951;-65
2024/01/22 01:07:05;;;;;;;;;;;9.10;99.90;;;;;;5072776;28;19977;-65
2024/01/22 01:09:31;;;;;;;;;;;9.10;99.90;;;;;;5054669;28;19948;-64
2024/01/22 01:11:57;;;;;;;;;;;9.10;99.90;;;;;;5072261;28;20351;-63
2024/01/22 01:14:23;;;;;;;;;;;9.10;99.90;;;;;;5072492;28;20010;-64
2024/01/22 01:16:49;;;;;;;;;;;9.10;99.90;;;;;;5072788;28;20225;-64
2024/01/22 01:19:15;;;;;;;;;;;9.00;99.90;;;;;;5072329;28;19916;-64
2024/01/22 01:21:41;;;;;;;;;;;9.00;99.90;;;;;;5072338;28;20006;-64
2024/01/22 01:24:07;;;;;;;;;;;9.00;99.90;;;;;;5072099;28;20019;-63
2024/01/22 01:26:33;;;;;;;;;;;9.00;99.90;;;;;;5072280;28;19920;-65
2024/01/22 01:28:59;;;;;;;;;;;9.20;99.90;;;;;;5072274;28;20339;-65
2024/01/22 01:31:28;;;;;;;;;;;9.00;99.90;;;;;;5072142;28;19908;-66
2024/01/22 01:33:54;;;;;;;;;;;9.10;99.90;;;;;;5072337;28;19912;-66
2024/01/22 01:36:20;;;;;;;;;;;9.10;99.90;;;;;;5072268;28;19927;-65
2024/01/22 01:38:46;;;;;;;;;;;9.10;99.90;;;;;;5072257;28;20430;-66
2024/01/22 01:41:12;;;;;;;;;;;9.10;99.90;;;;;;5050029;28;19924;-65
2024/01/22 01:43:38;;;;;;;;;;;9.20;99.90;;;;;;5052208;28;19932;-65
2024/01/22 01:46:03;;;;;;;;;;;9.10;99.90;;;;;;5051868;28;19908;-65
2024/01/22 01:48:29;;;;;;;;;;;9.20;99.90;;;;;;5052104;28;20230;-65
2024/01/22 01:50:56;;;;;;;;;;;9.20;99.90;;;;;;5050361;28;19909;-65
2024/01/22 01:53:22;;;;;;;;;;;9.20;99.90;;;;;;5049734;28;19943;-65
2024/01/22 01:55:48;;;;;;;;;;;9.10;99.90;;;;;;5051489;28;20424;-64
2024/01/22 01:58:14;;;;;;;;;;;9.20;99.90;;;;;;5050198;28;20016;-65
2024/01/22 02:00:42;;;;;;;;;;;9.20;99.90;;;;;;5051477;28;19970;-64
2024/01/22 02:03:09;;;;;;;;;;;9.20;99.90;;;;;;5051970;28;20392;-65
2024/01/22 02:05:34;;;;;;;;;;;9.10;99.90;;;;;;5051621;28;19999;-64
2024/01/22 02:08:00;;;;;;;;;;;9.10;99.90;;;;;;5051494;28;19941;-65
2024/01/22 02:10:26;;;;;;;;;;;9.00;99.90;;;;;;5051811;28;19916;-65
2024/01/22 02:12:53;;;;;;;;;;;8.90;99.90;;;;;;5051353;28;20377;-65
2024/01/22 02:15:19;;;;;;;;;;;8.90;99.90;;;;;;5051404;28;19909;-64
2024/01/22 02:17:45;;;;;;;;;;;8.70;99.90;;;;;;5051387;28;19908;-65
2024/01/22 02:20:11;;;;;;;;;;;8.70;99.90;;;;;;5051583;28;20361;-65
2024/01/22 02:22:37;;;;;;;;;;;8.70;99.90;;;;;;5051348;28;20004;-65
2024/01/22 02:25:03;;;;;;;;;;;8.70;99.90;;;;;;5051221;28;19913;-64
2024/01/22 02:27:28;;;;;;;;;;;8.70;99.90;;;;;;5049290;28;19915;-65
2024/01/22 02:29:54;;;;;;;;;;;8.70;99.90;;;;;;5050602;28;19916;-65
2024/01/22 02:32:20;;;;;;;;;;;8.70;99.90;;;;;;5050922;28;19921;-65
2024/01/22 02:34:46;;;;;;;;;;;8.70;99.90;;;;;;5051006;28;19955;-65
2024/01/22 02:37:11;;;;;;;;;;;8.70;99.90;;;;;;5050222;28;19920;-65
2024/01/22 02:39:37;;;;;;;;;;;8.80;99.90;;;;;;5054200;28;19916;-64
2024/01/22 02:42:03;;;;;;;;;;;8.70;99.90;;;;;;5067599;28;19919;-64
2024/01/22 02:44:29;;;;;;;;;;;8.70;99.90;;;;;;5070952;28;19961;-64
2024/01/22 02:46:55;;;;;;;;;;;8.70;99.90;;;;;;5052441;28;19919;-65
2024/01/22 02:49:21;;;;;;;;;;;8.80;99.90;;;;;;5070640;28;19908;-61
2024/01/22 02:51:47;;;;;;;;;;;8.80;99.90;;;;;;5070453;28;19953;-64
2024/01/22 02:54:12;;;;;;;;;;;8.80;99.90;;;;;;5070467;28;20018;-65
2024/01/22 02:56:39;;;;;;;;;;;8.80;99.90;;;;;;5070277;28;19932;-65
2024/01/22 02:59:06;;;;;;;;;;;8.90;99.90;;;;;;5070125;28;19908;-62
2024/01/22 03:01:32;;;;;;;;;;;8.80;99.90;;;;;;5070203;28;20298;-65
2024/01/22 03:03:58;;;;;;;;;;;8.80;99.90;;;;;;5070687;28;19962;-63
2024/01/22 03:06:23;;;;;;;;;;;8.80;99.90;;;;;;5070202;28;19915;-65
2024/01/22 03:08:49;;;;;;;;;;;8.80;99.90;;;;;;5070463;28;19908;-65
2024/01/22 03:11:15;;;;;;;;;;;8.80;99.90;;;;;;5069883;28;20035;-65
2024/01/22 03:13:41;;;;;;;;;;;8.80;99.90;;;;;;5070093;28;19974;-64
2024/01/22 03:16:06;;;;;;;;;;;8.80;99.90;;;;;;5069962;28;20380;-65
2024/01/22 03:18:32;;;;;;;;;;;8.80;99.90;;;;;;5070469;28;19909;-64
2024/01/22 03:20:58;;;;;;;;;;;8.80;99.90;;;;;;5070015;28;20264;-64
2024/01/22 03:23:24;;;;;;;;;;;8.80;99.90;;;;;;5068302;28;19915;-65
2024/01/22 03:25:49;;;;;;;;;;;8.80;99.90;;;;;;5067562;28;20391;-65
2024/01/22 03:28:15;;;;;;;;;;;8.80;99.90;;;;;;5069732;28;19997;-65
2024/01/22 03:30:41;;;;;;;;;;;8.90;99.90;;;;;;5069718;28;19992;-65
2024/01/22 03:33:07;;;;;;;;;;;8.90;99.90;;;;;;5069640;28;19997;-65
2024/01/22 03:35:33;;;;;;;;;;;8.90;99.90;;;;;;5069971;28;19932;-66
2024/01/22 03:37:58;;;;;;;;;;;8.90;99.90;;;;;;5068092;28;19908;-65
2024/01/22 03:40:24;;;;;;;;;;;8.90;99.90;;;;;;5069350;28;19966;-65
2024/01/22 03:42:50;;;;;;;;;;;8.90;99.90;;;;;;5069612;28;20012;-65
2024/01/22 03:45:16;;;;;;;;;;;9.00;99.90;;;;;;5070164;28;20309;-60
2024/01/22 03:47:42;;;;;;;;;;;8.90;99.90;;;;;;5069031;28;19920;-65
2024/01/22 03:50:10;;;;;;;;;;;8.90;99.90;;;;;;5069232;28;19962;-63
2024/01/22 03:52:35;;;;;;;;;;;9.00;99.90;;;;;;5069327;28;19917;-65
2024/01/22 03:55:02;;;;;;;;;;;9.00;99.90;;;;;;5069692;28;20230;-65
2024/01/22 03:57:28;;;;;;;;;;;8.90;99.90;;;;;;5070691;28;20275;-60
2024/01/22 03:59:53;;;;;;;;;;;8.90;99.90;;;;;;5069245;28;20003;-65
2024/01/22 04:02:19;;;;;;;;;;;8.80;99.90;;;;;;5069709;28;19909;-64
2024/01/22 04:04:45;;;;;;;;;;;8.80;99.90;;;;;;5068163;28;19961;-65
2024/01/22 04:07:12;;;;;;;;;;;8.80;99.90;;;;;;5068572;28;19909;-65
2024/01/22 04:09:37;;;;;;;;;;;8.80;99.90;;;;;;5069603;28;19912;-65
2024/01/22 04:12:06;;;;;;;;;;;8.80;99.90;;;;;;5069579;28;19922;-65
2024/01/22 04:14:32;;;;;;;;;;;8.90;99.90;;;;;;5051030;28;19977;-65
2024/01/22 04:16:59;;;;;;;;;;;8.90;99.90;;;;;;5069398;28;19995;-65
2024/01/22 04:19:25;;;;;;;;;;;8.90;99.90;;;;;;5070426;28;19926;-65
2024/01/22 04:21:51;;;;;;;;;;;8.90;99.90;;;;;;5070108;28;20309;-65
2024/01/22 04:24:17;;;;;;;;;;;8.90;99.90;;;;;;5070820;28;20012;-65
2024/01/22 04:26:43;;;;;;;;;;;8.90;99.90;;;;;;5071005;28;19912;-65
2024/01/22 04:29:09;;;;;;;;;;;8.90;99.90;;;;;;5053051;28;19909;-65
2024/01/22 04:31:36;;;;;;;;;;;8.80;99.90;;;;;;5070899;28;19945;-64
2024/01/22 04:34:01;;;;;;;;;;;8.90;99.90;;;;;;5071161;28;19909;-65
2024/01/22 04:36:28;;;;;;;;;;;8.90;99.90;;;;;;5071161;28;19931;-65
2024/01/22 04:38:53;;;;;;;;;;;8.90;99.90;;;;;;5070927;28;20020;-65
2024/01/22 04:41:19;;;;;;;;;;;9.00;99.90;;;;;;5070609;28;20353;-65
2024/01/22 04:43:45;;;;;;;;;;;9.00;99.90;;;;;;5070985;28;19954;-65
2024/01/22 04:46:11;;;;;;;;;;;9.00;99.90;;;;;;5070772;28;20309;-64
2024/01/22 04:48:37;;;;;;;;;;;9.00;99.90;;;;;;5070775;28;19987;-61
2024/01/22 04:51:03;;;;;;;;;;;9.10;99.90;;;;;;5070784;28;19909;-65
2024/01/22 04:53:29;;;;;;;;;;;9.10;99.90;;;;;;5067242;28;19927;-65
2024/01/22 04:55:55;;;;;;;;;;;9.10;99.90;;;;;;5070604;28;19915;-67
2024/01/22 04:58:21;;;;;;;;;;;9.10;99.90;;;;;;5069913;28;19964;-66
2024/01/22 05:00:47;;;;;;;;;;;9.10;99.90;;;;;;5074664;28;19916;-65
2024/01/22 05:03:13;;;;;;;;;;;9.10;99.90;;;;;;5075020;28;19979;-65
2024/01/22 05:05:39;;;;;;;;;;;9.10;99.90;;;;;;5074162;28;20304;-65
2024/01/22 05:08:05;;;;;;;;;;;9.10;99.90;;;;;;5073494;28;19908;-66
2024/01/22 05:10:32;;;;;;;;;;;9.00;99.90;;;;;;5075003;28;20046;-65
2024/01/22 05:12:58;;;;;;;;;;;9.00;99.90;;;;;;5074614;28;19942;-65
2024/01/22 05:15:24;;;;;;;;;;;9.00;99.90;;;;;;5074555;28;19916;-65
2024/01/22 05:17:50;;;;;;;;;;;9.00;99.90;;;;;;5075187;28;19908;-66
2024/01/22 05:20:15;;;;;;;;;;;9.00;99.90;;;;;;5076454;28;19912;-65
2024/01/22 05:22:41;;;;;;;;;;;9.00;99.90;;;;;;5076135;28;20007;-66
2024/01/22 05:25:08;;;;;;;;;;;9.00;99.90;;;;;;5076247;28;19912;-66
2024/01/22 05:27:35;;;;;;;;;;;9.00;99.90;;;;;;5074440;28;19958;-65
2024/01/22 05:30:00;;;;;;;;;;;9.10;99.90;;;;;;5075937;28;19913;-65
2024/01/22 05:32:26;;;;;;;;;;;9.10;99.90;;;;;;5075811;28;20379;-65
2024/01/22 05:34:52;;;;;;;;;;;9.10;99.90;;;;;;5074493;28;19919;-66
2024/01/22 05:37:18;;;;;;;;;;;9.10;99.90;;;;;;5076229;28;19913;-65
2024/01/22 05:39:44;;;;;;;;;;;9.10;99.90;;;;;;5075708;28;19995;-66
2024/01/22 05:42:09;;;;;;;;;;;9.10;99.90;;;;;;5075766;28;19909;-66
2024/01/22 05:44:35;;;;;;;;;;;9.10;99.90;;;;;;5075619;28;19908;-66
2024/01/22 05:47:01;;;;;;;;;;;9.10;99.90;;;;;;5075766;28;19994;-66
2024/01/22 05:49:27;;;;;;;;;;;9.10;99.90;;;;;;5075422;28;20276;-66
2024/01/22 05:51:53;;;;;;;;;;;9.10;99.90;;;;;;5075767;28;19965;-67
2024/01/22 05:54:18;;;;;;;;;;;9.20;99.90;;;;;;5079986;28;19913;-65
2024/01/22 05:56:44;;;;;;;;;;;9.20;99.90;;;;;;5095242;28;19908;-65
2024/01/22 05:59:10;;;;;;;;;;;9.20;99.90;;;;;;5095263;28;20449;-65
2024/01/22 06:01:38;;;;;;;;;;;9.30;99.90;;;;;;5095293;28;19943;-65
2024/01/22 06:04:04;;;;;;;;;;;9.30;99.90;;;;;;5095273;28;19916;-66
2024/01/22 06:06:30;;;;;;;;;;;9.40;99.90;;;;;;5094262;28;19908;-65
2024/01/22 06:08:56;;;;;;;;;;;9.40;99.90;;;;;;5094566;28;19926;-65
2024/01/22 06:11:22;;;;;;;;;;;9.40;99.90;;;;;;5084189;28;19974;-65
2024/01/22 06:13:47;;;;;;;;;;;9.40;99.90;;;;;;5074486;28;19920;-65
2024/01/22 06:16:14;;;;;;;;;;;9.40;99.90;;;;;;5074453;28;20357;-64
2024/01/22 06:18:41;;;;;;;;;;;9.30;99.90;;;;;;5074814;28;19909;-64
2024/01/22 06:21:07;;;;;;;;;;;9.40;99.90;;;;;;5074453;28;19909;-63
2024/01/22 06:23:33;;;;;;;;;;;9.40;99.90;;;;;;5074469;28;19908;-64
2024/01/22 06:26:00;;;;;;;;;;;9.40;99.90;;;;;;5074183;28;19908;-63
2024/01/22 06:28:26;;;;;;;;;;;9.30;99.90;;;;;;5073084;28;19908;-64
2024/01/22 06:30:53;;;;;;;;;;;9.30;99.90;;;;;;5073288;28;19909;-65
2024/01/22 06:33:19;;;;;;;;;;;9.40;99.90;;;;;;5073865;28;19950;-64
2024/01/22 06:35:45;;;;;;;;;;;9.50;99.90;;;;;;5073670;28;19908;-64
2024/01/22 06:38:11;;;;;;;;;;;9.70;99.90;;;;;;5073607;28;19908;-64
2024/01/22 06:40:37;;;;;;;;;;;10.20;99.90;;;;;;5073092;28;19943;-63
2024/01/22 06:43:04;;;;;;;;;;;10.50;99.90;;;;;;5072790;28;19927;-65
2024/01/22 06:45:30;;;;;;;;;;;11.00;99.90;;;;;;5072956;28;19909;-65
2024/01/22 06:47:56;;;;;;;;;;;11.50;99.90;;;;;;5072850;28;19927;-65
2024/01/22 06:50:22;;;;;;;;;;;12.20;99.90;;;;;;5072907;28;20263;-65
2024/01/22 06:52:48;;;;;;;;;;;13.00;99.90;;;;;;5072149;28;19943;-65
2024/01/22 06:55:15;;;;;;;;;;;13.40;99.90;;;;;;5072229;28;19962;-65
2024/01/22 06:57:41;;;;;;;;;;;13.80;99.90;;;;;;5071855;28;19909;-64
2024/01/22 07:00:07;;;;;;;;;;;14.30;99.90;;;;;;5071496;28;19924;-64
2024/01/22 07:02:39;;;;;;;;;;;14.70;99.90;;;;;;5057471;28;19962;-65
2024/01/22 07:05:06;;;;;;;;;;;15.20;99.90;;;;;;5068041;28;19951;-66
2024/01/22 07:07:32;;;;;;;;;;;15.50;99.90;;;;;;5072351;28;19916;-67
2024/01/22 07:09:58;;;;;;;;;;;15.70;99.90;;;;;;5071661;28;19916;-66
2024/01/22 07:12:24;;;;;;;;;;;15.80;99.90;;;;;;5071253;28;19985;-66
2024/01/22 07:14:50;;;;;;;;;;;15.50;99.90;;;;;;5071453;28;19912;-66
2024/01/22 07:17:16;;;;;;;;;;;15.70;99.90;;;;;;5070868;28;20268;-67
2024/01/22 07:19:43;;;;;;;;;;;15.70;99.90;;;;;;5052259;28;19908;-68
2024/01/22 07:22:09;;;;;;;;;;;16.10;99.90;;;;;;5049228;28;19986;-67
2024/01/22 07:24:36;;;;;;;;;;;16.60;99.90;;;;;;5033883;28;19913;-67
2024/01/22 07:27:01;;;;;;;;;;;17.30;99.90;;;;;;5052341;28;20381;-68
2024/01/22 07:29:27;;;;;;;;;;;17.90;99.90;;;;;;5052376;28;20338;-65
2024/01/22 07:31:53;;;;;;;;;;;17.50;99.90;;;;;;5052093;28;19961;-65
2024/01/22 07:34:20;;;;;;;;;;;17.60;99.90;;;;;;5052155;28;19913;-64
2024/01/22 07:36:45;;;;;;;;;;;17.60;99.90;;;;;;5052460;28;19984;-64
2024/01/22 07:39:12;;;;;;;;;;;17.90;99.90;;;;;;5052391;28;20442;-66
2024/01/22 07:41:40;;;;;;;;;;;18.00;99.90;;;;;;5052164;28;19928;-65
2024/01/22 07:44:06;;;;;;;;;;;18.50;99.90;;;;;;5053519;28;19916;-65
2024/01/22 07:46:32;;;;;;;;;;;18.40;99.90;;;;;;5054472;28;19908;-64
2024/01/22 07:48:58;;;;;;;;;;;18.60;99.90;;;;;;5072858;28;19908;-64
2024/01/22 07:51:24;;;;;;;;;;;18.50;99.90;;;;;;5072491;28;19963;-65
2024/01/22 07:53:50;;;;;;;;;;;18.50;99.90;;;;;;5072786;28;19962;-65
2024/01/22 07:56:16;;;;;;;;;;;18.50;99.90;;;;;;5072178;28;19985;-64
2024/01/22 07:58:42;;;;;;;;;;;18.30;99.90;;;;;;5072849;28;20010;-64
2024/01/22 08:01:08;;;;;;;;;;;17.70;99.90;;;;;;5072154;28;20000;-65
2024/01/22 08:03:34;;;;;;;;;;;17.00;99.90;;;;;;5071902;28;19909;-64
2024/01/22 08:06:00;;;;;;;;;;;16.30;99.90;;;;;;5072355;28;20309;-65
2024/01/22 08:08:27;;;;;;;;;;;16.00;99.90;;;;;;5072101;28;19908;-64
2024/01/22 08:10:53;;;;;;;;;;;15.70;99.90;;;;;;5072042;28;19920;-65
2024/01/22 08:13:18;;;;;;;;;;;15.30;99.90;;;;;;5071825;28;19921;-63
2024/01/22 08:15:44;;;;;;;;;;;14.90;99.90;;;;;;5071132;28;20015;-64
2024/01/22 08:18:10;;;;;;;;;;;14.60;99.90;;;;;;5071813;28;20265;-64
2024/01/22 08:20:36;;;;;;;;;;;14.60;99.90;;;;;;5071976;28;19915;-65
2024/01/22 08:23:02;;;;;;;;;;;14.40;99.90;;;;;;5071975;28;19908;-65
2024/01/22 08:25:29;;;;;;;;;;;14.20;99.90;;;;;;5072295;28;20264;-64
2024/01/22 08:27:55;;;;;;;;;;;14.30;99.90;;;;;;5053672;28;19908;-67
2024/01/22 08:30:21;;;;;;;;;;;14.20;99.90;;;;;;5071867;28;19916;-65
2024/01/22 08:32:48;;;;;;;;;;;14.10;99.90;;;;;;5071406;28;19970;-65
2024/01/22 08:35:15;;;;;;;;;;;14.20;99.90;;;;;;5074505;28;19954;-64
2024/01/22 08:37:41;;;;;;;;;;;14.10;99.90;;;;;;5075430;28;19915;-64
2024/01/22 08:40:08;;;;;;;;;;;14.10;99.90;;;;;;5075369;28;19934;-65
2024/01/22 08:42:34;;;;;;;;;;;14.00;99.90;;;;;;5075636;28;19953;-65
2024/01/22 08:45:00;;;;;;;;;;;14.00;99.90;;;;;;5069436;28;19977;-65
2024/01/22 08:47:26;;;;;;;;;;;13.70;99.90;;;;;;5075018;28;19995;-65
2024/01/22 08:49:52;;;;;;;;;;;13.80;99.90;;;;;;5074453;28;19957;-65
2024/01/22 08:52:17;;;;;;;;;;;13.90;99.90;;;;;;5074445;28;19924;-65
2024/01/22 08:54:43;;;;;;;;;;;13.80;99.90;;;;;;5074383;28;19920;-66
2024/01/22 08:57:09;;;;;;;;;;;13.80;99.90;;;;;;5074292;28;20412;-63
2024/01/22 08:59:35;;;;;;;;;;;13.90;99.90;;;;;;5056140;28;19908;-65
2024/01/22 09:02:01;;;;;;;;;;;13.90;99.90;;;;;;5074170;28;19909;-65
2024/01/22 09:04:26;;;;;;;;;;;13.80;99.90;;;;;;5074518;28;19915;-67
2024/01/22 09:06:52;;;;;;;;;;;13.80;99.90;;;;;;5073458;28;20008;-65
2024/01/22 09:09:18;;;;;;;;;;;13.90;99.90;;;;;;5061154;28;20016;-65
2024/01/22 09:11:44;;;;;;;;;;;14.10;99.90;;;;;;5073921;28;19908;-66
2024/01/22 09:14:10;;;;;;;;;;;14.10;99.90;;;;;;5073609;28;19936;-66
2024/01/22 09:16:36;;;;;;;;;;;14.10;99.90;;;;;;5056448;28;19954;-66
2024/01/22 09:19:02;;;;;;;;;;;14.10;99.90;;;;;;5075351;28;20105;-65
2024/01/22 09:21:28;;;;;;;;;;;14.20;99.90;;;;;;5074516;28;19912;-65
2024/01/22 09:23:54;;;;;;;;;;;14.40;99.90;;;;;;5074785;28;20383;-66
2024/01/22 09:26:20;;;;;;;;;;;14.40;99.90;;;;;;5074841;28;19912;-64
2024/01/22 09:28:46;;;;;;;;;;;14.40;99.90;;;;;;5074079;28;19908;-69
2024/01/22 09:31:12;;;;;;;;;;;14.60;99.90;;;;;;5055568;28;19909;-65
2024/01/22 09:33:38;;;;;;;;;;;14.70;99.90;;;;;;5073441;28;19985;-66
2024/01/22 09:36:04;;;;;;;;;;;14.80;99.90;;;;;;5073805;28;20361;-66
2024/01/22 09:38:30;;;;;;;;;;;14.90;99.90;;;;;;5073469;28;19945;-65
2024/01/22 09:40:55;;;;;;;;;;;14.80;99.90;;;;;;5073462;28;19924;-67
2024/01/22 09:43:22;;;;;;;;;;;14.70;99.90;;;;;;5073795;28;19912;-65
2024/01/22 09:45:49;;;;;;;;;;;14.90;99.90;;;;;;5073600;28;19956;-65
2024/01/22 09:48:15;;;;;;;;;;;15.10;99.90;;;;;;5074142;28;19908;-65
2024/01/22 09:50:41;;;;;;;;;;;14.60;99.90;;;;;;5073196;28;19909;-65
2024/01/22 09:53:11;;;;;;;;;;;14.30;99.90;;;;;;5074479;28;19923;-67
2024/01/22 09:55:40;;;;;;;;;;;14.00;99.90;;;;;;5073590;28;20434;-66
2024/01/22 09:58:08;;;;;;;;;;;13.50;99.90;;;;;;5073491;28;19985;-66
2024/01/22 10:00:34;;;;;;;;;;;13.40;99.90;;;;;;5073992;28;20347;-65
2024/01/22 10:03:00;;;;;;;;;;;13.60;99.90;;;;;;5073767;28;19919;-65
2024/01/22 10:05:26;;;;;;;;;;;13.90;99.90;;;;;;5074355;28;19908;-63
2024/01/22 10:07:52;;;;;;;;;;;14.30;99.90;;;;;;5073852;28;19915;-65
2024/01/22 10:10:20;;;;;;;;;;;14.30;99.90;;;;;;5074226;28;20003;-65
2024/01/22 10:12:59;;;;;;;;;;;14.60;99.90;;;;;;5055567;28;19967;-67
2024/01/22 10:15:26;;;;;;;;;;;14.90;99.90;;;;;;5073366;28;19962;-64
2024/01/22 10:17:52;;;;;;;;;;;15.30;99.90;;;;;;5055285;28;19908;-64
2024/01/22 10:20:22;;;;;;;;;;;15.30;99.90;;;;;;5073770;28;19920;-64
2024/01/22 10:22:47;;;;;;;;;;;15.10;99.90;;;;;;5073305;28;19909;-64
2024/01/22 10:25:17;;;;;;;;;;;15.10;99.90;;;;;;5072687;28;19931;-64
2024/01/22 10:27:42;;;;;;;;;;;15.00;99.90;;;;;;5073052;28;20416;-64
2024/01/22 10:30:09;;;;;;;;;;;15.10;99.90;;;;;;5073680;28;19998;-66
2024/01/22 10:32:35;;;;;;;;;;;15.30;99.90;;;;;;5073624;28;20061;-66
2024/01/22 10:35:01;;;;;;;;;;;15.60;99.90;;;;;;5073609;28;19909;-66
2024/01/22 10:37:27;;;;;;;;;;;15.80;99.90;;;;;;5073869;28;19909;-67
2024/01/22 10:40:01;;;;;;;;;;;15.90;99.90;;;;;;5072873;28;19927;-65
2024/01/22 10:42:27;;;;;;;;;;;15.80;99.90;;;;;;5073328;28;19916;-63
2024/01/22 10:44:53;;;;;;;;;;;15.90;99.90;;;;;;5073245;28;19909;-65
2024/01/22 10:47:19;;;;;;;;;;;15.90;99.90;;;;;;5073363;28;19959;-65
2024/01/22 10:49:45;;;;;;;;;;;15.70;99.90;;;;;;5072264;28;19909;-62
2024/01/22 10:52:13;;;;;;;;;;;15.70;99.90;;;;;;5072330;28;19932;-65
2024/01/22 10:54:39;;;;;;;;;;;15.50;99.90;;;;;;5072293;28;20004;-65
2024/01/22 10:57:14;;;;;;;;;;;15.70;99.90;;;;;;5071799;28;19908;-66
2024/01/22 10:59:44;;;;;;;;;;;15.80;99.90;;;;;;5072442;28;19921;-64
2024/01/22 11:02:15;;;;;;;;;;;15.90;99.90;;;;;;5072247;28;20007;-65
2024/01/22 11:04:44;;;;;;;;;;;16.10;99.90;;;;;;5072811;28;19909;-66
2024/01/22 11:07:11;;;;;;;;;;;16.30;99.90;;;;;;5072372;28;19912;-66
2024/01/22 11:09:37;;;;;;;;;;;16.40;99.90;;;;;;5072493;28;19909;-67
2024/01/22 11:12:05;;;;;;;;;;;16.30;99.90;;;;;;5072184;28;20000;-67
2024/01/22 11:14:32;;;;;;;;;;;16.40;99.90;;;;;;5072360;28;19912;-66
2024/01/22 11:16:58;;;;;;;;;;;16.20;99.90;;;;;;5072082;28;20483;-66
2024/01/22 11:19:24;;;;;;;;;;;16.10;99.90;;;;;;5072319;28;19955;-66
2024/01/22 11:21:52;;;;;;;;;;;16.30;99.90;;;;;;5071104;28;20384;-64
2024/01/22 11:24:22;;;;;;;;;;;16.60;99.90;;;;;;5072068;28;19908;-63
2024/01/22 11:26:51;;;;;;;;;;;16.70;99.90;;;;;;5071818;28;19920;-64
2024/01/22 11:29:26;;;;;;;;;;;16.80;99.90;;;;;;5072011;28;19912;-65
2024/01/22 11:31:53;;;;;;;;;;;16.80;99.90;;;;;;5070409;28;19909;-65
2024/01/22 11:34:37;;;;;;;;;;;16.80;99.90;;;;;;5072199;28;19916;-64
2024/01/22 11:37:03;;;;;;;;;;;17.00;99.90;;;;;;5071997;28;19931;-66
2024/01/22 11:39:43;;;;;;;;;;;17.30;99.90;;;;;;5071700;28;20354;-66
2024/01/22 11:42:20;;;;;;;;;;;17.40;99.90;;;;;;5071961;28;19962;-65
2024/01/22 11:44:50;;;;;;;;;;;17.50;99.90;;;;;;5072304;28;19955;-65
2024/01/22 11:47:16;;;;;;;;;;;17.50;99.90;;;;;;5072178;28;19908;-65
2024/01/22 11:49:42;;;;;;;;;;;17.30;99.90;;;;;;5071412;28;19916;-64
2024/01/22 11:52:16;;;;;;;;;;;17.10;99.90;;;;;;5071016;28;19912;-65
2024/01/22 11:54:55;;;;;;;;;;;16.30;99.90;;;;;;5069792;28;20006;-66
2024/01/22 11:57:21;;;;;;;;;;;15.90;99.90;;;;;;5070813;28;19927;-64
2024/01/22 12:00:19;;;;;;;;;;;15.50;99.90;;;;;;5071214;28;19921;-61
2024/01/22 12:02:49;;;;;;;;;;;15.70;99.90;;;;;;5029168;28;19913;-61
2024/01/22 12:05:18;;;;;;;;;;;15.90;99.90;;;;;;5029048;28;19943;-60
2024/01/22 12:07:53;;;;;;;;;;;15.80;99.90;;;;;;5029131;28;20357;-60
2024/01/22 12:10:22;;;;;;;;;;;16.00;99.90;;;;;;5032365;28;19917;-60
2024/01/22 12:12:57;;;;;;;;;;;16.30;99.90;;;;;;5016248;28;20023;-59
2024/01/22 12:15:24;;;;;;;;;;;16.40;99.90;;;;;;5032985;28;19967;-60
2024/01/22 12:17:50;;;;;;;;;;;16.30;99.90;;;;;;5033185;28;19913;-59
2024/01/22 12:20:18;;;;;;;;;;;16.30;99.90;;;;;;5033539;28;20285;-60
2024/01/22 12:22:44;;;;;;;;;;;16.50;99.90;;;;;;5033977;28;19910;-59
2024/01/22 12:25:12;;;;;;;;;;;16.60;99.90;;;;;;5034011;28;19916;-60
2024/01/22 12:27:38;;;;;;;;;;;16.70;99.90;;;;;;5033627;28;19916;-59
2024/01/22 12:30:14;;;;;;;;;;;16.80;99.90;;;;;;5034297;28;19948;-62
2024/01/22 12:32:50;;;;;;;;;;;16.90;99.90;;;;;;5033503;28;19946;-59
2024/01/22 12:35:16;;;;;;;;;;;16.70;99.90;;;;;;5033857;28;20023;-59
2024/01/22 12:37:41;;;;;;;;;;;16.80;99.90;;;;;;5033852;28;20051;-60
2024/01/22 12:40:15;;;;;;;;;;;16.90;99.90;;;;;;5036380;28;19921;-60
2024/01/22 12:42:50;;;;;;;;;;;17.00;99.90;;;;;;5055689;28;19909;-60
2024/01/22 12:45:19;;;;;;;;;;;17.10;99.90;;;;;;5065488;28;20054;-60
2024/01/22 12:47:48;;;;;;;;;;;17.20;99.90;;;;;;5075777;28;19908;-60
2024/01/22 12:50:17;;;;;;;;;;;17.10;99.90;;;;;;5075386;28;19920;-60
2024/01/22 12:52:44;;;;;;;;;;;17.10;99.90;;;;;;5075401;28;20406;-60
2024/01/22 12:55:10;;;;;;;;;;;17.10;99.90;;;;;;5075876;28;19928;-60
2024/01/22 12:57:36;;;;;;;;;;;17.10;99.90;;;;;;5075546;28;20241;-61
2024/01/22 13:00:05;;;;;;;;;;;17.00;99.90;;;;;;5073916;28;19970;-60
2024/01/22 13:02:32;;;;;;;;;;;17.00;99.90;;;;;;5073877;28;19928;-59
2024/01/22 13:04:59;;;;;;;;;;;17.20;99.90;;;;;;5075555;28;19923;-60
2024/01/22 13:07:25;;;;;;;;;;;17.30;99.90;;;;;;5075028;28;19952;-62
2024/01/22 13:09:50;;;;;;;;;;;17.30;99.90;;;;;;5076134;28;19916;-61
2024/01/22 13:12:17;;;;;;;;;;;17.30;99.90;;;;;;5075550;28;19958;-62
2024/01/22 13:14:43;;;;;;;;;;;17.30;99.90;;;;;;5072171;28;19908;-62
2024/01/22 13:17:10;;;;;;;;;;;17.10;99.90;;;;;;5075707;28;19924;-61
2024/01/22 13:19:38;;;;;;;;;;;17.10;99.90;;;;;;5075733;28;19909;-62
2024/01/22 13:22:05;;;;;;;;;;;17.20;99.90;;;;;;5075836;28;20352;-62
2024/01/22 13:24:31;;;;;;;;;;;17.30;99.90;;;;;;5076006;28;19978;-62
2024/01/22 13:27:00;;;;;;;;;;;17.20;99.90;;;;;;5075290;28;20357;-61
2024/01/22 13:29:26;;;;;;;;;;;16.90;99.90;;;;;;5075666;28;19958;-62
2024/01/22 13:31:52;;;;;;;;;;;16.90;99.90;;;;;;5075890;28;19913;-61
2024/01/22 13:34:19;;;;;;;;;;;17.00;99.90;;;;;;5075335;28;20086;-61
2024/01/22 13:36:46;;;;;;;;;;;17.10;99.90;;;;;;5057751;28;19908;-60
2024/01/22 13:39:13;;;;;;;;;;;17.00;99.90;;;;;;5075459;28;19978;-62
2024/01/22 13:41:39;;;;;;;;;;;16.80;99.90;;;;;;5075128;28;20316;-61
2024/01/22 13:44:11;;;;;;;;;;;16.70;99.90;;;;;;5057078;28;19912;-62
2024/01/22 13:46:37;;;;;;;;;;;16.60;99.90;;;;;;5075306;28;19962;-62
2024/01/22 13:49:05;;;;;;;;;;;16.60;99.90;;;;;;5056931;28;19912;-62
2024/01/22 13:51:31;;;;;;;;;;;16.70;99.90;;;;;;5074524;28;19962;-61
2024/01/22 13:53:58;;;;;;;;;;;16.80;99.90;;;;;;5055928;28;20380;-62
2024/01/22 13:56:24;;;;;;;;;;;16.80;99.90;;;;;;5074295;28;19958;-61
2024/01/22 13:58:49;;;;;;;;;;;16.80;99.90;;;;;;5073897;28;19912;-61
2024/01/22 14:01:16;;;;;;;;;;;16.90;99.90;;;;;;5074377;28;20423;-61
2024/01/22 14:03:42;;;;;;;;;;;16.90;99.90;;;;;;5074467;28;19920;-61
2024/01/22 14:06:08;;;;;;;;;;;16.90;99.90;;;;;;5074753;28;19944;-61
2024/01/22 14:08:34;;;;;;;;;;;16.90;99.90;;;;;;5074248;28;20304;-62
2024/01/22 14:10:59;;;;;;;;;;;16.90;99.90;;;;;;5074349;28;19912;-61
2024/01/22 14:13:26;;;;;;;;;;;17.00;99.90;;;;;;5073928;28;20003;-62
2024/01/22 14:15:53;;;;;;;;;;;17.00;99.90;;;;;;5073967;28;20045;-58
2024/01/22 14:18:19;;;;;;;;;;;16.90;99.90;;;;;;5074060;28;19973;-58
2024/01/22 14:20:48;;;;;;;;;;;16.70;99.90;;;;;;5074270;28;19909;-61